Time;durP1;ratioP1;P1;durP2;ratioP2;P2;SDS_P1;SDS_P2;PMS_P1;PMS_P2;Temp;Humidity;BMP_temperature;BMP_pressure;BME280_temperature;BME280_humidity;BME280_pressure;Samples;Min_cycle;Max_cycle;Signal;HPM_P1;HPM_P2
2021/09/28 00:00:45;;;;;;;2.53;1.00;;;;;;;;;;5010343;28;20217;-82
2021/09/28 00:03:12;;;;;;;3.37;1.00;;;;;;;;;;5009918;28;20204;-82
2021/09/28 00:05:40;;;;;;;3.13;1.20;;;;;;;;;;5009725;28;20661;-82
2021/09/28 00:08:06;;;;;;;6.10;1.50;;;;;;;;;;5011278;28;20617;-82
2021/09/28 00:10:35;;;;;;;3.23;1.10;;;;;;;;;;5011368;28;20232;-82
2021/09/28 00:13:03;;;;;;;1.83;0.97;;;;;;;;;;5010031;28;20228;-82
2021/09/28 00:15:30;;;;;;;1.57;0.90;;;;;;;;;;5011153;28;20251;-83
2021/09/28 00:17:56;;;;;;;3.87;1.47;;;;;;;;;;5009904;28;20639;-82
2021/09/28 00:20:24;;;;;;;4.33;1.10;;;;;;;;;;5009911;28;20228;-82
2021/09/28 00:22:54;;;;;;;5.40;1.43;;;;;;;;;;5011264;28;20205;-83
2021/09/28 00:25:21;;;;;;;4.93;1.30;;;;;;;;;;5011302;28;20211;-83
2021/09/28 00:27:48;;;;;;;6.37;1.67;;;;;;;;;;5013205;28;20201;-82
2021/09/28 00:30:15;;;;;;;3.03;1.10;;;;;;;;;;5012975;28;20898;-83
2021/09/28 00:32:41;;;;;;;1.90;1.00;;;;;;;;;;5014859;28;20621;-83
2021/09/28 00:35:08;;;;;;;4.33;1.27;;;;;;;;;;5013676;28;20232;-83
2021/09/28 00:37:35;;;;;;;3.43;1.23;;;;;;;;;;5012802;28;20697;-83
2021/09/28 00:40:03;;;;;;;5.10;1.20;;;;;;;;;;5015022;28;20243;-82
2021/09/28 00:42:30;;;;;;;5.00;1.30;;;;;;;;;;5020964;28;20247;-82
2021/09/28 00:44:56;;;;;;;1.60;1.07;;;;;;;;;;5016776;28;20551;-83
2021/09/28 00:47:23;;;;;;;1.97;1.10;;;;;;;;;;5016558;28;20192;-83
2021/09/28 00:49:50;;;;;;;2.97;1.30;;;;;;;;;;5016473;28;20720;-82
2021/09/28 00:52:18;;;;;;;7.10;2.27;;;;;;;;;;5034276;28;20243;-83
2021/09/28 00:54:45;;;;;;;3.57;1.47;;;;;;;;;;5016343;28;20207;-83
2021/09/28 00:57:13;;;;;;;2.53;1.23;;;;;;;;;;5016227;28;20664;-83
2021/09/28 00:59:40;;;;;;;2.13;1.33;;;;;;;;;;5016238;28;20627;-82
2021/09/28 01:02:07;;;;;;;5.77;1.30;;;;;;;;;;5015859;28;20737;-82
2021/09/28 01:04:34;;;;;;;5.07;1.43;;;;;;;;;;5016120;28;20235;-83
2021/09/28 01:07:02;;;;;;;2.83;1.27;;;;;;;;;;5034140;28;20219;-82
2021/09/28 01:09:28;;;;;;;3.23;1.33;;;;;;;;;;5033853;28;20600;-82
2021/09/28 01:11:55;;;;;;;3.37;1.40;;;;;;;;;;5033908;28;20584;-83
2021/09/28 01:14:23;;;;;;;3.47;1.33;;;;;;;;;;5015937;28;20204;-83
2021/09/28 01:16:49;;;;;;;2.63;1.27;;;;;;;;;;5033890;28;20207;-82
2021/09/28 01:19:16;;;;;;;2.03;1.30;;;;;;;;;;5015857;28;20235;-83
2021/09/28 01:21:45;;;;;;;2.60;1.53;;;;;;;;;;5033727;28;20205;-82
2021/09/28 01:24:12;;;;;;;4.47;1.77;;;;;;;;;;5015853;28;20223;-83
2021/09/28 01:26:39;;;;;;;4.67;1.30;;;;;;;;;;5015888;28;20627;-82
2021/09/28 01:29:07;;;;;;;3.57;1.37;;;;;;;;;;5033509;28;20243;-82
2021/09/28 01:31:34;;;;;;;5.30;1.40;;;;;;;;;;5015420;28;20236;-82
2021/09/28 01:34:01;;;;;;;3.17;1.30;;;;;;;;;;5016283;28;20311;-82
2021/09/28 01:36:27;;;;;;;4.20;1.50;;;;;;;;;;5014915;28;20238;-83
2021/09/28 01:38:55;;;;;;;3.60;1.13;;;;;;;;;;5015533;28;20208;-82
2021/09/28 01:41:22;;;;;;;2.03;1.30;;;;;;;;;;5015504;28;20210;-82
2021/09/28 01:43:49;;;;;;;3.77;1.20;;;;;;;;;;5011945;28;20336;-82
2021/09/28 01:46:15;;;;;;;2.20;1.20;;;;;;;;;;5013645;28;20178;-82
2021/09/28 01:48:45;;;;;;;1.20;1.10;;;;;;;;;;5012130;28;20240;-82
2021/09/28 01:51:11;;;;;;;5.07;1.40;;;;;;;;;;5012211;28;20260;-82
2021/09/28 01:53:38;;;;;;;3.53;1.47;;;;;;;;;;5011589;28;20232;-82
2021/09/28 01:56:06;;;;;;;2.80;1.30;;;;;;;;;;5012320;28;20739;-82
2021/09/28 01:58:33;;;;;;;2.10;1.20;;;;;;;;;;5012161;28;20582;-82
2021/09/28 02:01:00;;;;;;;4.17;1.40;;;;;;;;;;5013742;28;20224;-82
2021/09/28 02:03:27;;;;;;;4.13;1.43;;;;;;;;;;5012951;28;20714;-81
2021/09/28 02:05:53;;;;;;;3.17;1.10;;;;;;;;;;5013501;28;20581;-82
2021/09/28 02:08:20;;;;;;;2.40;1.20;;;;;;;;;;5013149;28;20244;-82
2021/09/28 02:10:46;;;;;;;3.13;1.10;;;;;;;;;;5013159;28;20602;-81
2021/09/28 02:13:14;;;;;;;3.77;1.10;;;;;;;;;;5011735;28;20232;-82
2021/09/28 02:15:41;;;;;;;3.13;1.17;;;;;;;;;;5013088;28;20209;-82
2021/09/28 02:18:08;;;;;;;3.60;1.10;;;;;;;;;;5012929;28;20236;-82
2021/09/28 02:20:34;;;;;;;2.13;1.10;;;;;;;;;;5013087;28;20657;-81
2021/09/28 02:23:01;;;;;;;5.07;1.33;;;;;;;;;;5012888;28;20240;-81
2021/09/28 02:25:28;;;;;;;3.60;1.07;;;;;;;;;;5011257;28;20236;-82
2021/09/28 02:27:54;;;;;;;2.37;1.33;;;;;;;;;;5012908;28;20208;-82
2021/09/28 02:30:22;;;;;;;1.30;1.20;;;;;;;;;;5012772;28;20233;-82
2021/09/28 02:32:49;;;;;;;2.33;1.20;;;;;;;;;;5013017;28;20259;-81
2021/09/28 02:35:16;;;;;;;3.23;0.97;;;;;;;;;;5011075;28;20236;-82
2021/09/28 02:37:42;;;;;;;2.87;0.90;;;;;;;;;;5012796;28;20247;-82
2021/09/28 02:40:10;;;;;;;1.83;1.33;;;;;;;;;;5012679;28;20558;-81
2021/09/28 02:42:36;;;;;;;2.00;1.10;;;;;;;;;;5019561;28;20255;-82
2021/09/28 02:45:03;;;;;;;3.23;1.60;;;;;;;;;;5032281;28;20208;-82
2021/09/28 02:47:31;;;;;;;2.83;1.50;;;;;;;;;;5013135;28;20231;-81
2021/09/28 02:49:58;;;;;;;3.50;1.10;;;;;;;;;;5014305;28;20251;-81
2021/09/28 02:52:25;;;;;;;2.20;1.07;;;;;;;;;;5014713;28;20214;-81
2021/09/28 02:54:51;;;;;;;1.87;0.90;;;;;;;;;;5032053;28;20240;-81
2021/09/28 02:57:18;;;;;;;2.20;1.20;;;;;;;;;;5014447;28;20660;-81
2021/09/28 02:59:45;;;;;;;3.10;0.93;;;;;;;;;;5031862;28;20239;-81
2021/09/28 03:02:12;;;;;;;1.90;0.90;;;;;;;;;;5013999;28;20239;-82
2021/09/28 03:04:40;;;;;;;6.23;1.20;;;;;;;;;;5014189;28;20282;-82
2021/09/28 03:07:07;;;;;;;2.97;1.27;;;;;;;;;;5014184;28;20648;-81
2021/09/28 03:09:33;;;;;;;1.80;1.23;;;;;;;;;;5013961;28;20208;-81
2021/09/28 03:12:00;;;;;;;4.90;1.20;;;;;;;;;;5013679;28;20239;-81
2021/09/28 03:14:27;;;;;;;2.63;1.33;;;;;;;;;;5013863;28;20274;-82
2021/09/28 03:16:54;;;;;;;2.90;1.00;;;;;;;;;;5014062;28;20229;-82
2021/09/28 03:19:21;;;;;;;6.97;1.40;;;;;;;;;;5031370;28;20246;-82
2021/09/28 03:21:49;;;;;;;4.13;1.27;;;;;;;;;;5031659;28;20234;-81
2021/09/28 03:24:15;;;;;;;3.20;1.13;;;;;;;;;;5013891;28;20207;-81
2021/09/28 03:26:42;;;;;;;4.63;1.30;;;;;;;;;;5013751;28;20248;-81
2021/09/28 03:29:09;;;;;;;1.20;1.00;;;;;;;;;;5031332;28;20250;-81
2021/09/28 03:31:35;;;;;;;1.70;1.20;;;;;;;;;;5013710;28;20708;-81
2021/09/28 03:34:02;;;;;;;7.37;1.37;;;;;;;;;;5031211;28;20239;-81
2021/09/28 03:36:29;;;;;;;2.23;1.30;;;;;;;;;;5031457;28;20203;-81
2021/09/28 03:38:56;;;;;;;4.70;1.20;;;;;;;;;;5013559;28;20205;-81
2021/09/28 03:41:23;;;;;;;3.70;1.10;;;;;;;;;;5013701;28;20552;-81
2021/09/28 03:43:50;;;;;;;2.40;1.23;;;;;;;;;;5031220;28;20263;-81
2021/09/28 03:46:17;;;;;;;1.57;1.03;;;;;;;;;;5030882;28;20243;-82
2021/09/28 03:48:43;;;;;;;1.20;1.10;;;;;;;;;;5031138;28;20236;-82
2021/09/28 03:51:10;;;;;;;2.80;1.00;;;;;;;;;;5013213;28;20294;-82
2021/09/28 03:53:37;;;;;;;1.97;1.03;;;;;;;;;;5031211;28;20307;-81
2021/09/28 03:56:05;;;;;;;1.13;1.00;;;;;;;;;;5013317;28;20722;-81
2021/09/28 03:58:32;;;;;;;1.43;0.80;;;;;;;;;;5013591;28;20253;-81
2021/09/28 04:00:58;;;;;;;2.97;1.20;;;;;;;;;;5017618;28;20269;-82
2021/09/28 04:03:25;;;;;;;1.43;1.20;;;;;;;;;;5017138;28;20220;-81
2021/09/28 04:05:52;;;;;;;2.93;1.57;;;;;;;;;;5035533;28;20234;-81
2021/09/28 04:08:18;;;;;;;6.90;1.43;;;;;;;;;;5035648;28;20216;-81
2021/09/28 04:10:45;;;;;;;2.03;1.33;;;;;;;;;;5017112;28;20745;-81
2021/09/28 04:13:13;;;;;;;3.83;1.20;;;;;;;;;;5017291;28;20770;-81
2021/09/28 04:15:40;;;;;;;4.30;0.80;;;;;;;;;;5035016;28;20660;-81
2021/09/28 04:18:07;;;;;;;3.07;1.00;;;;;;;;;;5035006;28;20242;-82
2021/09/28 04:20:34;;;;;;;1.47;1.17;;;;;;;;;;5017178;28;20224;-82
2021/09/28 04:23:01;;;;;;;2.03;1.37;;;;;;;;;;5017399;28;20236;-81
2021/09/28 04:25:28;;;;;;;3.53;1.40;;;;;;;;;;5034815;28;20707;-81
2021/09/28 04:27:54;;;;;;;6.07;1.23;;;;;;;;;;5017154;28;20217;-81
2021/09/28 04:30:22;;;;;;;1.30;1.17;;;;;;;;;;5034739;28;20698;-83
2021/09/28 04:32:49;;;;;;;3.53;1.10;;;;;;;;;;5034898;28;20582;-82
2021/09/28 04:35:16;;;;;;;4.20;1.20;;;;;;;;;;5016892;28;20232;-82
2021/09/28 04:37:43;;;;;;;2.13;1.40;;;;;;;;;;5017001;28;20216;-82
2021/09/28 04:40:10;;;;;;;3.30;1.40;;;;;;;;;;5034343;28;20235;-84
2021/09/28 04:42:37;;;;;;;2.00;1.20;;;;;;;;;;5012952;28;20221;-82
2021/09/28 04:45:04;;;;;;;2.47;1.27;;;;;;;;;;5013275;28;20231;-83
2021/09/28 04:47:32;;;;;;;1.37;1.17;;;;;;;;;;5013206;28;20727;-80
2021/09/28 04:49:59;;;;;;;6.50;1.20;;;;;;;;;;5012867;28;20233;-80
2021/09/28 04:52:25;;;;;;;1.70;1.27;;;;;;;;;;5013503;28;20253;-82
2021/09/28 04:54:52;;;;;;;1.83;1.40;;;;;;;;;;5013173;28;20231;-80
2021/09/28 04:57:21;;;;;;;2.03;1.30;;;;;;;;;;5013516;28;20243;-81
2021/09/28 04:59:47;;;;;;;3.27;1.30;;;;;;;;;;5012880;28;20209;-81
2021/09/28 05:02:14;;;;;;;8.83;1.67;;;;;;;;;;5013046;28;20229;-81
2021/09/28 05:04:42;;;;;;;4.20;1.40;;;;;;;;;;5014183;28;20688;-79
2021/09/28 05:07:09;;;;;;;4.83;1.50;;;;;;;;;;5013432;28;20205;-81
2021/09/28 05:09:37;;;;;;;3.27;1.17;;;;;;;;;;5012835;28;20204;-80
2021/09/28 05:12:04;;;;;;;3.73;1.37;;;;;;;;;;5013584;28;20239;-79
2021/09/28 05:14:31;;;;;;;1.17;1.00;;;;;;;;;;5013018;28;20231;-79
2021/09/28 05:16:58;;;;;;;4.77;1.33;;;;;;;;;;5012922;28;20286;-79
2021/09/28 05:19:25;;;;;;;1.93;1.20;;;;;;;;;;5012533;28;20232;-80
2021/09/28 05:21:53;;;;;;;2.23;1.13;;;;;;;;;;5014325;28;20216;-81
2021/09/28 05:24:20;;;;;;;4.97;1.60;;;;;;;;;;5012910;28;20201;-81
2021/09/28 05:26:47;;;;;;;2.80;1.20;;;;;;;;;;5013797;28;20263;-81
2021/09/28 05:29:14;;;;;;;4.23;1.50;;;;;;;;;;5013703;28;20252;-80
2021/09/28 05:31:40;;;;;;;3.90;1.47;;;;;;;;;;5013976;28;20224;-79
2021/09/28 05:34:07;;;;;;;4.50;1.33;;;;;;;;;;5012235;28;20295;-82
2021/09/28 05:36:33;;;;;;;1.20;1.10;;;;;;;;;;5012777;28;20731;-86
2021/09/28 05:39:01;;;;;;;2.40;1.47;;;;;;;;;;5012539;28;20244;-84
2021/09/28 05:41:28;;;;;;;3.37;1.50;;;;;;;;;;5012183;28;20417;-78
2021/09/28 05:43:55;;;;;;;2.10;1.30;;;;;;;;;;5031342;28;20260;-79
2021/09/28 05:46:21;;;;;;;5.00;1.60;;;;;;;;;;5032873;28;20235;-85
2021/09/28 05:48:48;;;;;;;4.33;1.27;;;;;;;;;;5033068;28;20727;-85
2021/09/28 05:51:18;;;;;;;3.47;1.30;;;;;;;;;;5015544;28;20224;-86
2021/09/28 05:53:45;;;;;;;2.83;1.40;;;;;;;;;;5015669;28;20239;-84
2021/09/28 05:56:14;;;;;;;1.70;1.50;;;;;;;;;;5015316;28;20601;-84
2021/09/28 05:58:40;;;;;;;4.93;1.80;;;;;;;;;;5015395;28;20188;-85
2021/09/28 06:01:07;;;;;;;3.20;1.53;;;;;;;;;;5016824;28;20227;-84
2021/09/28 06:03:33;;;;;;;6.63;2.00;;;;;;;;;;5033099;28;20211;-85
2021/09/28 06:06:00;;;;;;;2.70;1.70;;;;;;;;;;5014751;28;20223;-79
2021/09/28 06:08:27;;;;;;;4.43;1.73;;;;;;;;;;5032895;28;20259;-80
2021/09/28 06:10:54;;;;;;;2.93;1.83;;;;;;;;;;5032806;28;20208;-80
2021/09/28 06:13:22;;;;;;;1.83;1.50;;;;;;;;;;5031232;28;20260;-81
2021/09/28 06:15:49;;;;;;;3.37;1.60;;;;;;;;;;5032750;28;20247;-81
2021/09/28 06:18:15;;;;;;;8.60;1.90;;;;;;;;;;5032448;28;20232;-81
2021/09/28 06:20:42;;;;;;;3.70;1.70;;;;;;;;;;5032336;28;20235;-81
2021/09/28 06:23:09;;;;;;;3.17;2.00;;;;;;;;;;5031625;28;20201;-81
2021/09/28 06:25:35;;;;;;;2.97;1.80;;;;;;;;;;5014655;28;20224;-81
2021/09/28 06:28:02;;;;;;;2.83;2.10;;;;;;;;;;5014751;28;20710;-80
2021/09/28 06:30:30;;;;;;;3.47;2.53;;;;;;;;;;5032580;28;20247;-81
2021/09/28 06:32:57;;;;;;;3.37;2.63;;;;;;;;;;5014679;28;20247;-81
2021/09/28 06:35:24;;;;;;;7.47;2.80;;;;;;;;;;5014584;28;20201;-79
2021/09/28 06:37:51;;;;;;;4.10;2.50;;;;;;;;;;5014363;28;20203;-81
2021/09/28 06:40:17;;;;;;;3.97;2.30;;;;;;;;;;5030203;28;20212;-82
2021/09/28 06:42:44;;;;;;;3.63;2.53;;;;;;;;;;5035037;28;20250;-81
2021/09/28 06:45:11;;;;;;;2.87;2.23;;;;;;;;;;5032120;28;20686;-81
2021/09/28 06:47:39;;;;;;;4.70;2.40;;;;;;;;;;5049421;28;20235;-81
2021/09/28 06:50:06;;;;;;;4.47;2.40;;;;;;;;;;5031985;28;20320;-81
2021/09/28 06:52:32;;;;;;;6.63;2.40;;;;;;;;;;5031630;28;20273;-81
2021/09/28 06:54:59;;;;;;;2.30;2.10;;;;;;;;;;5049890;28;20246;-81
2021/09/28 06:57:26;;;;;;;7.10;3.30;;;;;;;;;;5031506;28;20231;-81
2021/09/28 06:59:52;;;;;;;8.13;4.60;;;;;;;;;;5036428;28;20254;-81
2021/09/28 07:02:19;;;;;;;10.67;5.33;;;;;;;;;;5011866;28;20680;-82
2021/09/28 07:04:47;;;;;;;6.47;5.67;;;;;;;;;;5011855;28;20334;-81
2021/09/28 07:07:14;;;;;;;3.50;3.20;;;;;;;;;;5029825;28;20246;-81
2021/09/28 07:09:40;;;;;;;5.97;2.80;;;;;;;;;;5011852;28;20232;-82
2021/09/28 07:12:07;;;;;;;3.73;2.30;;;;;;;;;;5028981;28;20243;-82
2021/09/28 07:14:34;;;;;;;7.97;2.83;;;;;;;;;;5011977;28;20243;-82
2021/09/28 07:17:00;;;;;;;10.33;2.40;;;;;;;;;;5011485;28;20262;-82
2021/09/28 07:19:27;;;;;;;5.70;2.60;;;;;;;;;;5011426;28;20232;-82
2021/09/28 07:21:55;;;;;;;4.03;2.37;;;;;;;;;;5011541;28;20231;-81
2021/09/28 07:24:22;;;;;;;4.47;2.53;;;;;;;;;;5029535;28;20219;-82
2021/09/28 07:26:49;;;;;;;2.67;2.10;;;;;;;;;;5011064;28;20311;-81
2021/09/28 07:29:15;;;;;;;6.30;2.00;;;;;;;;;;5011321;28;20655;-82
2021/09/28 07:31:42;;;;;;;4.63;2.00;;;;;;;;;;5029045;28;20250;-82
2021/09/28 07:34:09;;;;;;;4.37;2.67;;;;;;;;;;5028743;28;20263;-82
2021/09/28 07:36:36;;;;;;;5.50;2.40;;;;;;;;;;5043739;28;20259;-82
2021/09/28 07:39:04;;;;;;;7.00;2.17;;;;;;;;;;5049216;28;20240;-82
2021/09/28 07:41:31;;;;;;;5.00;2.00;;;;;;;;;;5017974;28;20228;-82
2021/09/28 07:43:58;;;;;;;3.30;1.90;;;;;;;;;;5007868;28;20261;-81
2021/09/28 07:46:26;;;;;;;4.47;2.27;;;;;;;;;;5010061;28;20213;-82
2021/09/28 07:48:52;;;;;;;3.53;1.70;;;;;;;;;;5007641;28;20681;-81
2021/09/28 07:51:19;;;;;;;3.07;1.77;;;;;;;;;;5008069;28;20275;-82
2021/09/28 07:53:49;;;;;;;5.17;1.97;;;;;;;;;;5007981;28;20679;-81
2021/09/28 07:56:17;;;;;;;5.10;1.67;;;;;;;;;;5008258;28;20236;-81
2021/09/28 07:58:44;;;;;;;4.70;1.90;;;;;;;;;;5007941;28;20648;-82
2021/09/28 08:01:10;;;;;;;3.27;1.80;;;;;;;;;;5008016;28;20232;-83
2021/09/28 08:03:38;;;;;;;5.33;1.77;;;;;;;;;;5008305;28;20224;-82
2021/09/28 08:06:04;;;;;;;4.80;1.80;;;;;;;;;;5008055;28;20225;-83
2021/09/28 08:08:31;;;;;;;5.17;1.67;;;;;;;;;;5009660;28;20267;-82
2021/09/28 08:10:57;;;;;;;4.10;1.70;;;;;;;;;;5010224;28;20594;-83
2021/09/28 08:13:26;;;;;;;5.73;1.80;;;;;;;;;;5009172;28;20774;-82
2021/09/28 08:15:52;;;;;;;4.00;1.70;;;;;;;;;;5010270;28;20287;-82
2021/09/28 08:18:19;;;;;;;6.67;1.77;;;;;;;;;;5011804;28;20205;-82
2021/09/28 08:20:50;;;;;;;5.37;1.97;;;;;;;;;;5012325;28;20680;-83
2021/09/28 08:23:17;;;;;;;3.50;2.07;;;;;;;;;;5011110;28;20197;-82
2021/09/28 08:25:49;;;;;;;4.93;2.07;;;;;;;;;;5009750;28;20209;-83
2021/09/28 08:31:02;;;;;;;5.87;2.13;;;;;;;;;;5010056;28;20758;-83
2021/09/28 08:33:29;;;;;;;6.53;2.37;;;;;;;;;;5009580;28;20297;-83
2021/09/28 08:35:56;;;;;;;4.40;2.40;;;;;;;;;;5009714;28;20260;-83
2021/09/28 08:38:22;;;;;;;5.57;2.30;;;;;;;;;;5011316;28;20641;-82
2021/09/28 08:40:49;;;;;;;5.03;2.60;;;;;;;;;;5009462;28;20853;-83
2021/09/28 08:43:16;;;;;;;3.97;2.30;;;;;;;;;;5012579;28;20251;-83
2021/09/28 08:45:43;;;;;;;5.07;2.60;;;;;;;;;;5014593;28;20208;-83
2021/09/28 08:48:13;;;;;;;5.47;2.80;;;;;;;;;;5017742;28;20196;-89
2021/09/28 08:50:40;;;;;;;5.43;2.00;;;;;;;;;;5037896;28;20729;-92
2021/09/28 08:53:08;;;;;;;5.70;2.23;;;;;;;;;;5018243;28;20700;-91
2021/09/28 08:55:36;;;;;;;10.60;2.67;;;;;;;;;;5036369;28;20223;-91
2021/09/28 08:58:13;;;;;;;5.97;2.73;;;;;;;;;;5023831;28;20200;-91
2021/09/28 09:00:40;;;;;;;7.50;2.70;;;;;;;;;;5020139;28;20346;-89
2021/09/28 09:03:06;;;;;;;7.00;2.33;;;;;;;;;;5037094;28;20200;-89
2021/09/28 09:05:46;;;;;;;6.17;2.87;;;;;;;;;;5017713;28;20687;-88
2021/09/28 09:08:14;;;;;;;4.77;3.40;;;;;;;;;;5017944;28;20204;-88
2021/09/28 09:10:40;;;;;;;5.73;4.30;;;;;;;;;;5034841;28;20217;-89
2021/09/28 09:13:07;;;;;;;7.43;4.33;;;;;;;;;;5035923;28;20233;-89
2021/09/28 09:15:35;;;;;;;6.83;4.90;;;;;;;;;;5016997;28;20247;-86
2021/09/28 09:18:03;;;;;;;8.43;4.60;;;;;;;;;;5015871;28;20232;-86
2021/09/28 09:20:32;;;;;;;8.13;5.30;;;;;;;;;;5033900;28;20247;-84
2021/09/28 09:23:14;;;;;;;13.80;6.20;;;;;;;;;;5015812;28;20232;-82
2021/09/28 09:25:41;;;;;;;13.47;6.37;;;;;;;;;;5016552;28;20254;-85
2021/09/28 09:28:18;;;;;;;8.50;6.60;;;;;;;;;;5015866;28;20282;-83
2021/09/28 09:30:44;;;;;;;7.10;6.30;;;;;;;;;;5033015;28;20211;-84
2021/09/28 09:33:11;;;;;;;10.70;6.87;;;;;;;;;;5032603;28;20734;-84
2021/09/28 09:35:38;;;;;;;11.10;6.70;;;;;;;;;;5015921;28;20200;-85
2021/09/28 09:38:05;;;;;;;9.47;5.50;;;;;;;;;;5016564;28;20228;-84
2021/09/28 09:40:34;;;;;;;11.10;5.23;;;;;;;;;;5016487;28;20204;-82
2021/09/28 09:43:01;;;;;;;6.87;4.87;;;;;;;;;;5015950;28;20232;-83
2021/09/28 09:45:28;;;;;;;10.37;5.00;;;;;;;;;;5016274;28;20281;-82
2021/09/28 09:47:55;;;;;;;8.90;5.33;;;;;;;;;;5016115;28;20211;-82
2021/09/28 09:50:22;;;;;;;6.57;4.33;;;;;;;;;;5016712;28;20224;-82
2021/09/28 09:53:07;;;;;;;7.07;4.03;;;;;;;;;;5015920;28;20225;-80
2021/09/28 09:55:38;;;;;;;6.63;3.57;;;;;;;;;;5015192;28;20235;-84
2021/09/28 09:58:05;;;;;;;5.80;3.87;;;;;;;;;;5033563;28;20583;-82
2021/09/28 10:00:33;;;;;;;6.73;3.30;;;;;;;;;;5015344;28;20289;-84
2021/09/28 10:03:00;;;;;;;3.87;3.10;;;;;;;;;;5015507;28;20651;-86
2021/09/28 10:05:26;;;;;;;4.23;3.50;;;;;;;;;;5015688;28;20671;-88
2021/09/28 10:07:54;;;;;;;11.83;3.83;;;;;;;;;;5015814;28;20203;-87
2021/09/28 10:10:21;;;;;;;7.63;3.30;;;;;;;;;;5015813;28;20619;-87
2021/09/28 10:12:49;;;;;;;10.70;3.27;;;;;;;;;;5033686;28;20212;-90
2021/09/28 10:15:16;;;;;;;8.80;2.90;;;;;;;;;;5016150;28;20314;-90
2021/09/28 10:17:45;;;;;;;5.50;2.40;;;;;;;;;;5015679;28;20553;-84
2021/09/28 10:20:25;;;;;;;7.97;2.60;;;;;;;;;;5014708;28;20231;-81
2021/09/28 10:22:53;;;;;;;5.90;2.30;;;;;;;;;;5014467;28;20196;-81
2021/09/28 10:25:35;;;;;;;7.10;2.80;;;;;;;;;;5014416;28;20231;-81
2021/09/28 10:28:20;;;;;;;5.13;2.80;;;;;;;;;;5014795;28;20282;-83
2021/09/28 10:30:48;;;;;;;5.07;2.33;;;;;;;;;;5032614;28;20584;-84
2021/09/28 10:33:26;;;;;;;4.07;2.83;;;;;;;;;;5013951;28;20227;-85
2021/09/28 10:35:54;;;;;;;6.28;2.42;;;;;;;;;;5032048;28;20767;-85
2021/09/28 10:38:40;;;;;;;3.42;2.10;;;;;;;;;;5026243;28;20224;-86
2021/09/28 10:41:06;;;;;;;7.57;2.50;;;;;;;;;;5012959;28;20213;-82
2021/09/28 10:43:34;;;;;;;3.03;2.80;;;;;;;;;;5019086;28;20754;-83
2021/09/28 10:46:04;;;;;;;5.50;4.50;;;;;;;;;;5032524;28;20216;-84
2021/09/28 10:48:33;;;;;;;5.90;3.80;;;;;;;;;;5014738;28;20666;-83
2021/09/28 10:51:07;;;;;;;5.57;4.03;;;;;;;;;;5014396;28;20270;-81
2021/09/28 10:53:35;;;;;;;7.57;4.07;;;;;;;;;;5031947;28;20243;-85
2021/09/28 10:56:04;;;;;;;4.27;3.70;;;;;;;;;;5032431;28;20200;-87
2021/09/28 10:58:32;;;;;;;8.83;3.90;;;;;;;;;;5032388;28;20227;-83
2021/09/28 11:01:09;;;;;;;4.63;3.63;;;;;;;;;;5032465;28;20231;-87
2021/09/28 11:03:51;;;;;;;6.20;4.00;;;;;;;;;;5014497;28;20200;-89
2021/09/28 11:06:18;;;;;;;8.05;4.30;;;;;;;;;;5032225;28;20216;-85
2021/09/28 11:08:44;;;;;;;7.87;4.60;;;;;;;;;;5031411;28;20228;-85
2021/09/28 11:11:12;;;;;;;9.00;4.68;;;;;;;;;;5014932;28;20192;-84
2021/09/28 11:13:40;;;;;;;6.18;4.60;;;;;;;;;;5013422;28;20227;-85
2021/09/28 11:16:09;;;;;;;5.57;4.37;;;;;;;;;;5013678;28;20242;-84
2021/09/28 11:18:38;;;;;;;8.75;4.30;;;;;;;;;;5013746;28;20608;-83
2021/09/28 11:21:08;;;;;;;6.55;4.72;;;;;;;;;;5013889;28;20262;-84
2021/09/28 11:23:35;;;;;;;6.18;4.72;;;;;;;;;;5013903;28;20281;-87
2021/09/28 11:26:01;;;;;;;6.07;4.95;;;;;;;;;;5031678;28;20215;-85
2021/09/28 11:28:28;;;;;;;6.00;4.35;;;;;;;;;;5031267;28;20247;-83
2021/09/28 11:30:55;;;;;;;6.00;3.78;;;;;;;;;;5031132;28;20631;-83
2021/09/28 11:33:24;;;;;;;6.17;4.30;;;;;;;;;;5031331;28;20204;-83
2021/09/28 11:35:56;;;;;;;6.22;3.90;;;;;;;;;;5013294;28;20248;-84
2021/09/28 11:38:27;;;;;;;7.23;4.50;;;;;;;;;;5031400;28;20246;-88
2021/09/28 11:40:58;;;;;;;5.95;4.00;;;;;;;;;;5012882;28;20574;-86
2021/09/28 11:43:26;;;;;;;6.55;4.30;;;;;;;;;;5031106;28;20266;-87
2021/09/28 11:45:59;;;;;;;4.43;3.75;;;;;;;;;;5031693;28;20207;-84
2021/09/28 11:48:28;;;;;;;4.47;3.88;;;;;;;;;;5031087;28;20699;-85
2021/09/28 11:50:55;;;;;;;5.95;4.32;;;;;;;;;;5031237;28;20274;-85
2021/09/28 11:53:22;;;;;;;7.03;4.07;;;;;;;;;;5031328;28;20254;-83
2021/09/28 11:55:48;;;;;;;8.82;4.32;;;;;;;;;;5030711;28;20692;-84
2021/09/28 11:58:15;;;;;;;6.35;4.03;;;;;;;;;;5030991;28;20239;-85
2021/09/28 12:00:43;;;;;;;7.45;4.00;;;;;;;;;;5030691;28;20246;-85
2021/09/28 12:03:11;;;;;;;5.47;3.90;;;;;;;;;;5031612;28;20207;-85
2021/09/28 12:06:03;;;;;;;7.45;4.07;;;;;;;;;;5031005;28;20231;-85
2021/09/28 12:08:32;;;;;;;6.50;4.88;;;;;;;;;;5030627;28;20242;-85
2021/09/28 12:11:02;;;;;;;11.60;4.97;;;;;;;;;;5012775;28;20607;-86
2021/09/28 12:13:28;;;;;;;5.03;4.05;;;;;;;;;;5013243;28;20232;-86
2021/09/28 12:15:59;;;;;;;11.63;5.05;;;;;;;;;;5030814;28;20621;-86
2021/09/28 12:18:25;;;;;;;4.60;4.05;;;;;;;;;;5031010;28;20232;-84
2021/09/28 12:21:06;;;;;;;6.97;4.50;;;;;;;;;;5032811;28;20236;-86
2021/09/28 12:23:33;;;;;;;5.95;4.25;;;;;;;;;;5035191;28;20231;-84
2021/09/28 12:26:00;;;;;;;6.82;4.68;;;;;;;;;;5016991;28;20226;-85
2021/09/28 12:28:27;;;;;;;6.05;4.50;;;;;;;;;;5034907;28;20629;-85
2021/09/28 12:30:55;;;;;;;9.23;4.93;;;;;;;;;;5034945;28;20211;-84
2021/09/28 12:33:22;;;;;;;5.93;3.25;;;;;;;;;;5016624;28;20242;-84
2021/09/28 12:35:52;;;;;;;8.02;3.63;;;;;;;;;;5034616;28;20259;-85
2021/09/28 12:38:20;;;;;;;7.93;2.97;;;;;;;;;;5016561;28;20231;-88
2021/09/28 12:40:47;;;;;;;3.35;2.58;;;;;;;;;;5016859;28;20679;-84
2021/09/28 12:43:15;;;;;;;5.93;2.92;;;;;;;;;;5012936;28;20776;-84
2021/09/28 12:45:46;;;;;;;3.72;2.58;;;;;;;;;;5013018;28;20287;-82
2021/09/28 12:48:13;;;;;;;5.40;1.95;;;;;;;;;;5013114;28;20286;-84
2021/09/28 12:50:40;;;;;;;2.83;1.55;;;;;;;;;;5014309;28;20257;-85
2021/09/28 12:53:08;;;;;;;3.50;1.80;;;;;;;;;;5014324;28;20228;-86
2021/09/28 12:55:37;;;;;;;6.15;1.67;;;;;;;;;;5013349;28;20280;-85
2021/09/28 12:58:04;;;;;;;3.90;1.50;;;;;;;;;;5013224;28;20692;-85
2021/09/28 13:00:31;;;;;;;3.53;2.20;;;;;;;;;;5013065;28;20225;-84
2021/09/28 13:02:58;;;;;;;3.67;1.50;;;;;;;;;;5014469;28;20247;-85
2021/09/28 13:05:25;;;;;;;5.13;1.83;;;;;;;;;;5013335;28;20239;-85
2021/09/28 13:07:53;;;;;;;4.95;1.77;;;;;;;;;;5014629;28;20217;-84
2021/09/28 13:10:20;;;;;;;2.72;1.83;;;;;;;;;;5013186;28;20216;-85
2021/09/28 13:12:48;;;;;;;3.05;1.80;;;;;;;;;;5012425;28;20594;-85
2021/09/28 13:15:16;;;;;;;4.18;1.85;;;;;;;;;;5012976;28;20256;-87
2021/09/28 13:17:42;;;;;;;3.17;1.45;;;;;;;;;;5014337;28;20236;-87
2021/09/28 13:20:10;;;;;;;5.40;1.30;;;;;;;;;;5012723;28;20231;-85
2021/09/28 13:22:37;;;;;;;2.67;1.67;;;;;;;;;;5012349;28;20283;-85
2021/09/28 13:25:04;;;;;;;2.28;1.48;;;;;;;;;;5012998;28;20185;-86
2021/09/28 13:27:31;;;;;;;5.18;1.70;;;;;;;;;;5012905;28;20200;-85
2021/09/28 13:29:59;;;;;;;2.28;1.50;;;;;;;;;;5012623;28;20263;-86
2021/09/28 13:32:26;;;;;;;3.63;1.80;;;;;;;;;;5013343;28;20177;-86
2021/09/28 13:34:54;;;;;;;3.10;1.95;;;;;;;;;;5012604;28;20706;-86
2021/09/28 13:37:23;;;;;;;3.20;1.40;;;;;;;;;;5013918;28;20565;-82
2021/09/28 13:39:49;;;;;;;1.95;1.30;;;;;;;;;;5012587;28;20299;-87
2021/09/28 13:42:16;;;;;;;3.53;1.40;;;;;;;;;;5017800;28;20630;-86
2021/09/28 13:44:42;;;;;;;3.63;1.38;;;;;;;;;;5033532;28;20219;-85
2021/09/28 13:47:13;;;;;;;1.52;1.33;;;;;;;;;;5033302;28;20235;-87
2021/09/28 13:49:39;;;;;;;1.67;1.40;;;;;;;;;;5015755;28;20251;-87
2021/09/28 13:52:06;;;;;;;3.25;1.52;;;;;;;;;;5032953;28;20552;-86
2021/09/28 13:54:33;;;;;;;4.00;1.67;;;;;;;;;;5033162;28;20231;-86
2021/09/28 13:57:00;;;;;;;5.07;1.83;;;;;;;;;;5033282;28;20227;-85
2021/09/28 13:59:26;;;;;;;1.85;1.42;;;;;;;;;;5015088;28;20231;-85
2021/09/28 14:01:53;;;;;;;4.32;1.60;;;;;;;;;;5032744;28;20239;-86
2021/09/28 14:04:21;;;;;;;2.58;1.50;;;;;;;;;;5033221;28;20589;-85
2021/09/28 14:06:48;;;;;;;5.60;1.55;;;;;;;;;;5032960;28;20239;-87
2021/09/28 14:09:14;;;;;;;3.65;1.80;;;;;;;;;;5033307;28;20215;-87
2021/09/28 14:11:41;;;;;;;3.22;1.83;;;;;;;;;;5032888;28;20238;-86
2021/09/28 14:14:07;;;;;;;5.15;1.55;;;;;;;;;;5032721;28;20255;-85
2021/09/28 14:16:34;;;;;;;2.40;1.77;;;;;;;;;;5014452;28;20254;-87
2021/09/28 14:19:01;;;;;;;4.72;1.90;;;;;;;;;;5032819;28;20243;-87
2021/09/28 14:21:29;;;;;;;2.70;1.40;;;;;;;;;;5032399;28;20240;-86
2021/09/28 14:23:56;;;;;;;3.00;1.70;;;;;;;;;;5032512;28;20247;-85
2021/09/28 14:26:22;;;;;;;3.55;1.73;;;;;;;;;;5032410;28;20216;-86
2021/09/28 14:28:49;;;;;;;5.80;1.88;;;;;;;;;;5032319;28;20243;-86
2021/09/28 14:31:16;;;;;;;2.58;1.83;;;;;;;;;;5014745;28;20235;-87
2021/09/28 14:33:42;;;;;;;2.45;1.80;;;;;;;;;;5032756;28;20181;-87
2021/09/28 14:36:09;;;;;;;3.35;2.10;;;;;;;;;;5014549;28;20255;-87
2021/09/28 14:38:37;;;;;;;5.78;2.20;;;;;;;;;;5032227;28;20244;-84
2021/09/28 14:41:04;;;;;;;2.78;2.10;;;;;;;;;;5014971;28;20208;-88
2021/09/28 14:43:31;;;;;;;4.45;1.80;;;;;;;;;;5031371;28;20286;-89
2021/09/28 14:45:58;;;;;;;3.60;2.03;;;;;;;;;;5032668;28;20581;-92
2021/09/28 14:48:24;;;;;;;4.07;1.98;;;;;;;;;;5032301;28;20672;-88